createdAt,value
2018-12-12T00:00:09.022Z,1015.02
2018-12-12T00:01:08.934Z,1015.01
2018-12-12T00:02:08.909Z,1015.00
2018-12-12T00:04:26.346Z,1015.05
2018-12-12T00:05:26.318Z,1015.05
2018-12-12T00:06:26.306Z,1015.04
2018-12-12T00:07:36.229Z,1015.03
2018-12-12T00:08:26.318Z,1015.06
2018-12-12T00:09:26.373Z,1015.00
2018-12-12T00:10:26.341Z,1015.03
2018-12-12T00:11:26.267Z,1015.00
2018-12-12T00:12:26.515Z,1014.97
2018-12-12T00:13:26.440Z,1014.97
2018-12-12T00:14:26.357Z,1015.01
2018-12-12T00:15:26.278Z,1015.01
2018-12-12T00:16:26.259Z,1014.98
2018-12-12T00:17:26.241Z,1014.99
2018-12-12T00:18:26.237Z,1015.00
2018-12-12T00:19:26.320Z,1014.98
2018-12-12T00:20:26.460Z,1014.98
2018-12-12T00:21:35.293Z,1014.98
2018-12-12T00:22:35.310Z,1014.99
2018-12-12T00:25:06.264Z,1015.12
2018-12-12T00:26:06.207Z,1015.02
2018-12-12T00:27:06.255Z,1015.03
2018-12-12T00:28:06.189Z,1015.08
2018-12-12T00:29:15.589Z,1015.07
2018-12-12T00:30:06.207Z,1015.04
2018-12-12T00:31:06.169Z,1015.04
2018-12-12T00:32:06.195Z,1015.07
2018-12-12T00:33:06.109Z,1015.10
2018-12-12T00:34:06.133Z,1015.08
2018-12-12T00:35:06.102Z,1015.07
2018-12-12T00:36:06.125Z,1015.10
2018-12-12T00:37:15.640Z,1015.12
2018-12-12T00:38:06.051Z,1015.12
2018-12-12T00:39:06.055Z,1015.17
2018-12-12T00:40:06.043Z,1015.13
2018-12-12T00:41:06.048Z,1015.16
2018-12-12T00:42:06.059Z,1015.18
2018-12-12T00:43:06.008Z,1015.13
2018-12-12T00:44:05.991Z,1015.14
2018-12-12T00:45:15.151Z,1015.11
2018-12-12T00:46:05.990Z,1015.21
2018-12-12T00:47:05.999Z,1015.16
2018-12-12T00:48:05.984Z,1015.19
2018-12-12T00:49:05.942Z,1015.19
2018-12-12T00:50:05.985Z,1015.22
2018-12-12T00:51:05.931Z,1015.19
2018-12-12T00:52:05.950Z,1015.19
2018-12-12T00:53:05.932Z,1015.23
2018-12-12T00:54:05.895Z,1015.20
2018-12-12T00:55:05.884Z,1015.21
2018-12-12T00:56:05.882Z,1015.25
2018-12-12T00:57:05.890Z,1015.26
2018-12-12T00:58:05.867Z,1015.26
2018-12-12T00:59:05.874Z,1015.28
2018-12-12T01:00:05.889Z,1015.29
2018-12-12T01:01:05.854Z,1015.32
2018-12-12T01:02:05.817Z,1015.32
2018-12-12T01:03:05.842Z,1015.33
2018-12-12T01:04:05.774Z,1015.29
2018-12-12T01:05:05.791Z,1015.32
2018-12-12T01:06:05.761Z,1015.28
2018-12-12T01:07:05.767Z,1015.28
2018-12-12T01:08:05.755Z,1015.31
2018-12-12T01:09:05.780Z,1015.28
2018-12-12T01:10:05.732Z,1015.23
2018-12-12T01:11:05.731Z,1015.25
2018-12-12T01:12:05.707Z,1015.24
2018-12-12T01:13:05.707Z,1015.29
2018-12-12T01:14:05.713Z,1015.32
2018-12-12T01:15:05.690Z,1015.33
2018-12-12T01:16:05.674Z,1015.28
2018-12-12T01:17:05.705Z,1015.38
2018-12-12T01:18:05.669Z,1015.36
2018-12-12T01:19:05.655Z,1015.34
2018-12-12T01:20:05.666Z,1015.35
2018-12-12T01:21:05.635Z,1015.42
2018-12-12T01:22:05.635Z,1015.36
2018-12-12T01:23:05.642Z,1015.45
2018-12-12T01:24:05.576Z,1015.43
2018-12-12T01:25:05.647Z,1015.46
2018-12-12T01:26:05.584Z,1015.44
2018-12-12T01:27:05.564Z,1015.47
2018-12-12T01:28:05.560Z,1015.52
2018-12-12T01:29:05.596Z,1015.52
2018-12-12T01:30:05.567Z,1015.50
2018-12-12T01:31:05.538Z,1015.53
2018-12-12T01:32:05.534Z,1015.55
2018-12-12T01:33:05.548Z,1015.54
2018-12-12T01:34:05.506Z,1015.55
2018-12-12T01:35:05.489Z,1015.52
2018-12-12T01:36:05.526Z,1015.47
2018-12-12T01:37:05.537Z,1015.50
2018-12-12T01:38:05.457Z,1015.46
2018-12-12T01:39:05.445Z,1015.50
2018-12-12T01:40:05.448Z,1015.50
2018-12-12T01:43:33.043Z,1015.54
2018-12-12T01:44:32.927Z,1015.57
2018-12-12T01:45:32.892Z,1015.57
2018-12-12T01:46:32.865Z,1015.52
2018-12-12T01:47:32.875Z,1015.54
2018-12-12T01:48:32.863Z,1015.56
2018-12-12T01:49:32.837Z,1015.58
2018-12-12T01:50:32.844Z,1015.55
2018-12-12T01:51:32.903Z,1015.56
2018-12-12T01:52:43.276Z,1015.55
2018-12-12T01:53:33.179Z,1015.65
2018-12-12T01:54:32.800Z,1015.63
2018-12-12T01:55:32.778Z,1015.66
2018-12-12T01:56:32.754Z,1015.63
2018-12-12T01:57:32.775Z,1015.65
2018-12-12T01:58:32.748Z,1015.71
2018-12-12T01:59:32.740Z,1015.70
2018-12-12T02:00:32.733Z,1015.69
2018-12-12T02:01:32.719Z,1015.69
2018-12-12T02:02:32.717Z,1015.64
2018-12-12T02:03:32.715Z,1015.67
2018-12-12T02:04:32.681Z,1015.62
2018-12-12T02:05:32.680Z,1015.75
2018-12-12T02:06:32.689Z,1015.72
2018-12-12T02:07:32.648Z,1015.76
2018-12-12T02:08:32.658Z,1015.77
2018-12-12T02:09:32.622Z,1015.72
2018-12-12T02:10:32.627Z,1015.75
2018-12-12T02:11:32.617Z,1015.76
2018-12-12T02:12:32.596Z,1015.82
2018-12-12T02:13:32.599Z,1015.84
2018-12-12T02:14:32.574Z,1015.83
2018-12-12T02:15:32.574Z,1015.79
2018-12-12T02:16:32.562Z,1015.81
2018-12-12T02:17:32.541Z,1015.82
2018-12-12T02:18:32.558Z,1015.81
2018-12-12T02:19:32.528Z,1015.84
2018-12-12T02:20:32.515Z,1015.84
2018-12-12T02:21:32.535Z,1015.83
2018-12-12T02:22:32.497Z,1015.81
2018-12-12T02:23:32.534Z,1015.81
2018-12-12T02:24:32.470Z,1015.84
2018-12-12T02:25:32.471Z,1015.84
2018-12-12T02:26:32.457Z,1015.85
2018-12-12T02:27:32.431Z,1015.90
2018-12-12T02:28:32.422Z,1015.87
2018-12-12T02:29:32.447Z,1015.92
2018-12-12T02:30:32.409Z,1015.91
2018-12-12T02:31:32.409Z,1015.91
2018-12-12T02:32:32.381Z,1015.95
2018-12-12T02:33:32.372Z,1015.92
2018-12-12T02:34:32.457Z,1015.95
2018-12-12T02:35:32.370Z,1015.95
2018-12-12T02:36:32.352Z,1015.90
2018-12-12T02:37:32.418Z,1015.98
2018-12-12T02:38:32.331Z,1015.92
2018-12-12T02:39:32.333Z,1015.98
2018-12-12T02:40:32.320Z,1015.99
2018-12-12T02:41:32.314Z,1016.02
2018-12-12T02:42:32.294Z,1016.02
2018-12-12T02:43:32.305Z,1016.06
2018-12-12T02:44:32.278Z,1016.06
2018-12-12T02:45:32.250Z,1016.08
2018-12-12T02:46:32.262Z,1016.04
2018-12-12T02:47:32.224Z,1016.14
2018-12-12T02:48:32.245Z,1016.09
2018-12-12T02:49:32.435Z,1016.10
2018-12-12T02:50:32.199Z,1016.10
2018-12-12T02:51:32.200Z,1016.06
2018-12-12T02:52:32.229Z,1016.14
2018-12-12T02:53:32.161Z,1016.11
2018-12-12T02:54:32.168Z,1016.12
2018-12-12T02:55:32.173Z,1016.15
2018-12-12T02:56:32.138Z,1016.15
2018-12-12T02:57:32.152Z,1016.20
2018-12-12T02:58:32.133Z,1016.13
2018-12-12T02:59:32.194Z,1016.14
2018-12-12T03:00:32.106Z,1016.21
2018-12-12T03:01:32.079Z,1016.12
2018-12-12T03:02:32.111Z,1016.21
2018-12-12T03:03:32.085Z,1016.21
2018-12-12T03:04:32.063Z,1016.23
2018-12-12T03:05:32.067Z,1016.25
2018-12-12T03:06:32.046Z,1016.25
2018-12-12T03:07:32.053Z,1016.23
2018-12-12T03:08:32.040Z,1016.24
2018-12-12T03:09:32.043Z,1016.26
2018-12-12T03:10:31.984Z,1016.22
2018-12-12T03:11:32.002Z,1016.21
2018-12-12T03:12:31.998Z,1016.21
2018-12-12T03:13:31.950Z,1016.28
2018-12-12T03:14:31.955Z,1016.27
2018-12-12T03:15:31.938Z,1016.31
2018-12-12T03:16:31.950Z,1016.31
2018-12-12T03:17:31.961Z,1016.32
2018-12-12T03:18:31.983Z,1016.33
2018-12-12T03:19:31.939Z,1016.30
2018-12-12T03:20:31.900Z,1016.32
2018-12-12T03:21:31.894Z,1016.30
2018-12-12T03:22:31.908Z,1016.36
2018-12-12T03:23:31.872Z,1016.34
2018-12-12T03:24:31.887Z,1016.33
2018-12-12T03:25:31.846Z,1016.36
2018-12-12T03:26:31.829Z,1016.40
2018-12-12T03:27:31.815Z,1016.41
2018-12-12T03:28:31.846Z,1016.39
2018-12-12T03:29:31.812Z,1016.43
2018-12-12T03:30:31.815Z,1016.49
2018-12-12T03:31:31.788Z,1016.50
2018-12-12T03:32:31.754Z,1016.50
2018-12-12T03:33:31.758Z,1016.49
2018-12-12T03:34:31.766Z,1016.53
2018-12-12T03:35:33.310Z,1016.55
2018-12-12T03:36:31.750Z,1016.56
2018-12-12T03:37:31.740Z,1016.54
2018-12-12T03:38:31.715Z,1016.58
2018-12-12T03:39:31.703Z,1016.56
2018-12-12T03:40:31.687Z,1016.61
2018-12-12T03:41:31.703Z,1016.61
2018-12-12T03:42:31.675Z,1016.62
2018-12-12T03:43:31.658Z,1016.65
2018-12-12T03:44:31.647Z,1016.63
2018-12-12T03:45:31.661Z,1016.69
2018-12-12T03:46:31.630Z,1016.68
2018-12-12T03:47:31.639Z,1016.76
2018-12-12T03:48:31.632Z,1016.68
2018-12-12T03:49:31.602Z,1016.70
2018-12-12T03:50:31.566Z,1016.70
2018-12-12T03:51:40.337Z,1016.73
2018-12-12T03:52:40.854Z,1016.68
2018-12-12T03:53:31.534Z,1016.77
2018-12-12T03:54:31.570Z,1016.72
2018-12-12T03:55:31.522Z,1016.77
2018-12-12T03:56:31.509Z,1016.79
2018-12-12T03:57:31.510Z,1016.72
2018-12-12T03:58:31.501Z,1016.84
2018-12-12T03:59:39.103Z,1016.84
2018-12-12T04:00:31.496Z,1016.82
2018-12-12T04:01:31.476Z,1016.81
2018-12-12T04:02:31.462Z,1016.86
2018-12-12T04:03:31.442Z,1016.88
2018-12-12T04:04:31.440Z,1016.91
2018-12-12T04:05:31.450Z,1016.90
2018-12-12T04:06:31.415Z,1016.95
2018-12-12T04:07:31.423Z,1016.92
2018-12-12T04:08:31.412Z,1016.91
2018-12-12T04:09:31.385Z,1016.95
2018-12-12T04:10:31.381Z,1016.95
2018-12-12T04:11:31.386Z,1016.92
2018-12-12T04:12:31.381Z,1016.99
2018-12-12T04:13:31.341Z,1016.96
2018-12-12T04:14:31.342Z,1016.93
2018-12-12T04:15:32.312Z,1016.97
2018-12-12T04:16:31.303Z,1017.00
2018-12-12T04:17:31.370Z,1016.98
2018-12-12T04:18:31.293Z,1017.00
2018-12-12T04:19:31.270Z,1017.01
2018-12-12T04:20:31.282Z,1017.01
2018-12-12T04:21:31.291Z,1017.04
2018-12-12T04:22:31.256Z,1017.04
2018-12-12T04:23:31.248Z,1017.06
2018-12-12T04:24:31.291Z,1017.07
2018-12-12T04:25:31.229Z,1017.10
2018-12-12T04:26:31.222Z,1017.09
2018-12-12T04:27:31.198Z,1017.05
2018-12-12T04:28:31.199Z,1017.05
2018-12-12T04:29:31.195Z,1017.09
2018-12-12T04:30:31.176Z,1017.08
2018-12-12T04:31:31.169Z,1017.05
2018-12-12T04:32:31.160Z,1017.04
2018-12-12T04:33:31.184Z,1017.09
2018-12-12T04:34:31.138Z,1017.08
2018-12-12T04:35:31.144Z,1017.05
2018-12-12T04:36:31.097Z,1017.07
2018-12-12T04:37:31.095Z,1017.10
2018-12-12T04:38:31.145Z,1017.05
2018-12-12T04:39:31.070Z,1017.09
2018-12-12T04:40:31.061Z,1017.13
2018-12-12T04:41:31.085Z,1017.12
2018-12-12T04:42:31.229Z,1017.12
2018-12-12T04:43:31.033Z,1017.15
2018-12-12T04:44:31.020Z,1017.13
2018-12-12T04:45:31.036Z,1017.13
2018-12-12T04:46:31.013Z,1017.12
2018-12-12T04:47:31.011Z,1017.14
2018-12-12T04:48:31.037Z,1017.16
2018-12-12T04:49:30.973Z,1017.19
2018-12-12T04:50:30.959Z,1017.16
2018-12-12T04:51:30.954Z,1017.19
2018-12-12T04:52:30.954Z,1017.16
2018-12-12T04:53:30.964Z,1017.21
2018-12-12T04:54:30.931Z,1017.18
2018-12-12T04:55:30.917Z,1017.15
2018-12-12T04:56:30.899Z,1017.23
2018-12-12T04:57:30.889Z,1017.21
2018-12-12T04:58:30.883Z,1017.23
2018-12-12T04:59:30.983Z,1017.26
2018-12-12T05:00:30.901Z,1017.26
2018-12-12T05:01:30.867Z,1017.28
2018-12-12T05:02:30.857Z,1017.28
2018-12-12T05:03:30.834Z,1017.29
2018-12-12T05:04:30.817Z,1017.28
2018-12-12T05:05:31.173Z,1017.30
2018-12-12T05:06:30.791Z,1017.29
2018-12-12T05:07:30.803Z,1017.32
2018-12-12T05:08:30.792Z,1017.35
2018-12-12T05:09:30.814Z,1017.34
2018-12-12T05:10:30.767Z,1017.37
2018-12-12T05:11:30.784Z,1017.36
2018-12-12T05:12:30.744Z,1017.39
2018-12-12T05:13:30.758Z,1017.37
2018-12-12T05:14:30.777Z,1017.35
2018-12-12T05:15:30.705Z,1017.34
2018-12-12T05:16:30.711Z,1017.37
2018-12-12T05:17:30.667Z,1017.38
2018-12-12T05:18:30.681Z,1017.37
2018-12-12T05:19:30.722Z,1017.40
2018-12-12T05:20:30.685Z,1017.38
2018-12-12T05:21:30.673Z,1017.45
2018-12-12T05:22:30.622Z,1017.46
2018-12-12T05:23:30.648Z,1017.46
2018-12-12T05:24:30.607Z,1017.45
2018-12-12T05:25:30.602Z,1017.46
2018-12-12T05:26:30.644Z,1017.46
2018-12-12T05:27:30.585Z,1017.49
2018-12-12T05:28:30.614Z,1017.48
2018-12-12T05:29:30.579Z,1017.53
2018-12-12T05:30:30.556Z,1017.55
2018-12-12T05:31:30.581Z,1017.51
2018-12-12T05:32:30.581Z,1017.54
2018-12-12T05:33:30.524Z,1017.57
2018-12-12T05:34:30.527Z,1017.55
2018-12-12T05:35:30.492Z,1017.56
2018-12-12T05:36:30.515Z,1017.56
2018-12-12T05:37:30.478Z,1017.58
2018-12-12T05:38:30.493Z,1017.57
2018-12-12T05:39:30.491Z,1017.63
2018-12-12T05:40:30.426Z,1017.58
2018-12-12T05:41:30.458Z,1017.55
2018-12-12T05:42:30.417Z,1017.55
2018-12-12T05:43:30.455Z,1017.56
2018-12-12T05:44:30.417Z,1017.56
2018-12-12T05:45:33.388Z,1017.56
2018-12-12T05:46:30.370Z,1017.56
2018-12-12T05:47:30.369Z,1017.64
2018-12-12T05:48:30.366Z,1017.60
2018-12-12T05:49:30.380Z,1017.64
2018-12-12T05:50:30.378Z,1017.70
2018-12-12T05:51:30.537Z,1017.72
2018-12-12T05:52:30.343Z,1017.70
2018-12-12T05:53:30.371Z,1017.70
2018-12-12T05:54:30.353Z,1017.75
2018-12-12T05:55:31.086Z,1017.75
2018-12-12T05:56:30.487Z,1017.77
2018-12-12T05:57:30.289Z,1017.78
2018-12-12T05:58:30.538Z,1017.73
2018-12-12T05:59:30.592Z,1017.75
2018-12-12T06:00:30.475Z,1017.74
2018-12-12T06:01:30.418Z,1017.77
2018-12-12T06:02:30.411Z,1017.78
2018-12-12T06:03:30.227Z,1017.77
2018-12-12T06:04:30.198Z,1017.77
2018-12-12T06:05:30.179Z,1017.84
2018-12-12T06:06:30.202Z,1017.76
2018-12-12T06:07:30.162Z,1017.83
2018-12-12T06:08:30.152Z,1017.87
2018-12-12T06:09:30.161Z,1017.89
2018-12-12T06:10:30.139Z,1017.88
2018-12-12T06:11:30.172Z,1017.92
2018-12-12T06:12:30.125Z,1017.89
2018-12-12T06:13:30.118Z,1017.90
2018-12-12T06:14:30.095Z,1017.89
2018-12-12T06:15:30.138Z,1017.95
2018-12-12T06:16:30.117Z,1017.92
2018-12-12T06:17:30.075Z,1017.98
2018-12-12T06:18:30.117Z,1017.96
2018-12-12T06:19:30.052Z,1017.99
2018-12-12T06:20:30.071Z,1017.97
2018-12-12T06:21:30.046Z,1018.01
2018-12-12T06:22:30.033Z,1017.97
2018-12-12T06:23:30.010Z,1018.00
2018-12-12T06:24:30.002Z,1018.00
2018-12-12T06:25:30.005Z,1017.99
2018-12-12T06:26:29.970Z,1018.04
2018-12-12T06:27:29.975Z,1018.03
2018-12-12T06:28:29.984Z,1018.03
2018-12-12T06:29:29.930Z,1018.03
2018-12-12T06:30:29.926Z,1018.02
2018-12-12T06:31:29.940Z,1018.02
2018-12-12T06:32:30.007Z,1018.06
2018-12-12T06:33:29.921Z,1018.04
2018-12-12T06:34:29.885Z,1018.06
2018-12-12T06:35:29.867Z,1017.98
2018-12-12T06:36:29.873Z,1018.05
2018-12-12T06:37:29.862Z,1018.02
2018-12-12T06:38:29.878Z,1018.09
2018-12-12T06:39:29.914Z,1018.06
2018-12-12T06:40:29.821Z,1018.08
2018-12-12T06:41:29.852Z,1018.12
2018-12-12T06:42:29.828Z,1018.17
2018-12-12T06:43:29.811Z,1018.14
2018-12-12T06:44:29.820Z,1018.17
2018-12-12T06:45:29.786Z,1018.22
2018-12-12T06:46:29.797Z,1018.22
2018-12-12T06:47:29.772Z,1018.25
2018-12-12T06:48:29.747Z,1018.24
2018-12-12T06:49:29.870Z,1018.25
2018-12-12T06:50:29.802Z,1018.26
2018-12-12T06:51:29.722Z,1018.31
2018-12-12T06:52:29.691Z,1018.31
2018-12-12T06:53:29.695Z,1018.31
2018-12-12T06:54:29.691Z,1018.34
2018-12-12T06:55:29.719Z,1018.32
2018-12-12T06:56:29.663Z,1018.34
2018-12-12T06:57:29.681Z,1018.34
2018-12-12T06:58:29.646Z,1018.40
2018-12-12T06:59:29.640Z,1018.34
2018-12-12T07:00:29.624Z,1018.32
2018-12-12T07:01:29.656Z,1018.38
2018-12-12T07:02:29.601Z,1018.35
2018-12-12T07:03:29.630Z,1018.38
2018-12-12T07:04:29.605Z,1018.36
2018-12-12T07:05:29.611Z,1018.38
2018-12-12T07:06:29.660Z,1018.42
2018-12-12T07:07:29.543Z,1018.41
2018-12-12T07:08:29.563Z,1018.40
2018-12-12T07:09:29.551Z,1018.45
2018-12-12T07:10:29.518Z,1018.49
2018-12-12T07:11:29.530Z,1018.46
2018-12-12T07:12:29.506Z,1018.46
2018-12-12T07:13:35.556Z,1018.53
2018-12-12T07:14:30.479Z,1018.54
2018-12-12T07:15:29.480Z,1018.54
2018-12-12T07:16:29.459Z,1018.55
2018-12-12T07:17:29.456Z,1018.58
2018-12-12T07:18:29.435Z,1018.55
2018-12-12T07:19:29.439Z,1018.53
2018-12-12T07:20:29.410Z,1018.61
2018-12-12T07:21:29.394Z,1018.65
2018-12-12T07:22:29.430Z,1018.56
2018-12-12T07:23:29.368Z,1018.58
2018-12-12T07:24:39.968Z,1018.62
2018-12-12T07:25:29.403Z,1018.65
2018-12-12T07:26:29.363Z,1018.64
2018-12-12T07:27:29.363Z,1018.64
2018-12-12T07:28:29.333Z,1018.65
2018-12-12T07:29:29.342Z,1018.63
2018-12-12T07:30:29.356Z,1018.66
2018-12-12T07:31:29.320Z,1018.72
2018-12-12T07:32:29.289Z,1018.74
2018-12-12T07:33:29.303Z,1018.70
2018-12-12T07:34:29.286Z,1018.69
2018-12-12T07:35:29.355Z,1018.65
2018-12-12T07:36:29.275Z,1018.66
2018-12-12T07:37:29.244Z,1018.66
2018-12-12T07:38:29.269Z,1018.63
2018-12-12T07:39:29.214Z,1018.67
2018-12-12T07:40:29.225Z,1018.71
2018-12-12T07:41:29.191Z,1018.74
2018-12-12T07:42:29.185Z,1018.74
2018-12-12T07:43:29.184Z,1018.70
2018-12-12T07:44:29.195Z,1018.73
2018-12-12T07:45:29.159Z,1018.75
2018-12-12T07:46:29.151Z,1018.82
2018-12-12T07:47:29.150Z,1018.77
2018-12-12T07:48:29.181Z,1018.83
2018-12-12T07:49:29.148Z,1018.81
2018-12-12T07:50:29.135Z,1018.85
2018-12-12T07:51:29.102Z,1018.85
2018-12-12T07:52:29.112Z,1018.87
2018-12-12T07:53:29.071Z,1018.88
2018-12-12T07:54:29.117Z,1018.88
2018-12-12T07:55:29.066Z,1018.90
2018-12-12T07:56:29.031Z,1018.86
2018-12-12T07:57:29.043Z,1018.86
2018-12-12T07:58:29.122Z,1018.89
2018-12-12T07:59:29.008Z,1018.90
2018-12-12T08:00:29.065Z,1018.88
2018-12-12T08:01:28.982Z,1018.92
2018-12-12T08:02:28.996Z,1018.89
2018-12-12T08:03:28.952Z,1018.85
2018-12-12T08:04:28.979Z,1018.88
2018-12-12T08:05:28.935Z,1018.89
2018-12-12T08:06:28.998Z,1018.88
2018-12-12T08:07:28.961Z,1018.85
2018-12-12T08:08:28.919Z,1018.87
2018-12-12T08:09:28.901Z,1018.92
2018-12-12T08:10:28.919Z,1018.94
2018-12-12T08:11:28.918Z,1019.00
2018-12-12T08:12:28.881Z,1018.95
2018-12-12T08:13:28.867Z,1018.90
2018-12-12T08:14:28.894Z,1018.89
2018-12-12T08:15:28.836Z,1018.91
2018-12-12T08:16:28.903Z,1018.89
2018-12-12T08:17:28.839Z,1018.94
2018-12-12T08:18:28.812Z,1018.93
2018-12-12T08:19:28.806Z,1018.89
2018-12-12T08:20:28.788Z,1018.93
2018-12-12T08:21:28.892Z,1018.95
2018-12-12T08:22:28.773Z,1018.93
2018-12-12T08:23:28.757Z,1018.90
2018-12-12T08:24:28.756Z,1018.94
2018-12-12T08:25:28.750Z,1018.91
2018-12-12T08:26:28.725Z,1018.91
2018-12-12T08:27:28.729Z,1018.92
2018-12-12T08:28:28.751Z,1018.93
2018-12-12T08:29:28.704Z,1018.93
2018-12-12T08:30:28.713Z,1018.97
2018-12-12T08:31:28.712Z,1019.03
2018-12-12T08:32:28.718Z,1018.94
2018-12-12T08:33:28.656Z,1018.95
2018-12-12T08:34:28.632Z,1019.01
2018-12-12T08:35:28.664Z,1019.04
2018-12-12T08:36:28.651Z,1019.03
2018-12-12T08:37:28.625Z,1019.00
2018-12-12T08:38:28.604Z,1019.03
2018-12-12T08:39:28.657Z,1019.02
2018-12-12T08:40:28.586Z,1019.04
2018-12-12T08:41:28.575Z,1019.06
2018-12-12T08:42:28.573Z,1019.05
2018-12-12T08:43:28.591Z,1019.03
2018-12-12T08:44:28.573Z,1019.04
2018-12-12T08:45:28.854Z,1019.10
2018-12-12T08:46:28.522Z,1019.11
2018-12-12T08:47:28.529Z,1019.06
2018-12-12T08:48:28.506Z,1019.11
2018-12-12T08:49:28.505Z,1019.13
2018-12-12T08:50:28.477Z,1019.11
2018-12-12T08:51:28.476Z,1019.09
2018-12-12T08:52:28.451Z,1019.16
2018-12-12T08:53:28.442Z,1019.16
2018-12-12T08:54:28.616Z,1019.14
2018-12-12T08:55:28.455Z,1019.17
2018-12-12T08:56:28.431Z,1019.21
2018-12-12T08:57:28.431Z,1019.22
2018-12-12T08:58:28.402Z,1019.22
2018-12-12T08:59:28.376Z,1019.20
2018-12-12T09:00:28.392Z,1019.21
2018-12-12T09:01:28.431Z,1019.26
2018-12-12T09:02:28.358Z,1019.27
2018-12-12T09:03:28.325Z,1019.27
2018-12-12T09:04:28.341Z,1019.31
2018-12-12T09:05:28.326Z,1019.32
2018-12-12T09:06:28.330Z,1019.25
2018-12-12T09:07:28.341Z,1019.31
2018-12-12T09:08:28.316Z,1019.32
2018-12-12T09:09:28.307Z,1019.30
2018-12-12T09:10:28.284Z,1019.30
2018-12-12T09:11:28.267Z,1019.31
2018-12-12T09:12:28.257Z,1019.30
2018-12-12T09:13:28.648Z,1019.30
2018-12-12T09:14:28.232Z,1019.34
2018-12-12T09:15:28.230Z,1019.35
2018-12-12T09:16:28.222Z,1019.35
2018-12-12T09:17:28.199Z,1019.31
2018-12-12T09:18:28.197Z,1019.36
2018-12-12T09:19:28.203Z,1019.36
2018-12-12T09:20:28.149Z,1019.35
2018-12-12T09:21:28.148Z,1019.32
2018-12-12T09:22:28.138Z,1019.36
2018-12-12T09:23:28.258Z,1019.39
2018-12-12T09:24:28.123Z,1019.45
2018-12-12T09:25:28.135Z,1019.46
2018-12-12T09:26:28.097Z,1019.42
2018-12-12T09:27:28.110Z,1019.40
2018-12-12T09:28:28.081Z,1019.42
2018-12-12T09:29:28.095Z,1019.40
2018-12-12T09:30:28.083Z,1019.40
2018-12-12T09:31:28.055Z,1019.38
2018-12-12T09:32:28.054Z,1019.43
2018-12-12T09:33:28.027Z,1019.43
2018-12-12T09:34:28.020Z,1019.42
2018-12-12T09:35:28.034Z,1019.43
2018-12-12T09:36:28.018Z,1019.47
2018-12-12T09:37:28.002Z,1019.45
2018-12-12T09:38:27.969Z,1019.47
2018-12-12T09:39:27.955Z,1019.47
2018-12-12T09:40:27.967Z,1019.51
2018-12-12T09:41:27.965Z,1019.45
2018-12-12T09:42:27.946Z,1019.50
2018-12-12T09:43:27.956Z,1019.43
2018-12-12T09:44:27.929Z,1019.42
2018-12-12T09:45:27.912Z,1019.46
2018-12-12T09:46:27.942Z,1019.46
2018-12-12T09:47:27.895Z,1019.43
2018-12-12T09:48:27.869Z,1019.45
2018-12-12T09:49:27.864Z,1019.43
2018-12-12T09:50:27.859Z,1019.41
2018-12-12T09:51:28.468Z,1019.46
2018-12-12T09:52:28.449Z,1019.43
2018-12-12T09:53:28.107Z,1019.47
2018-12-12T09:54:28.854Z,1019.41
2018-12-12T09:55:30.447Z,1019.44
2018-12-12T09:56:28.503Z,1019.47
2018-12-12T09:57:28.463Z,1019.46
2018-12-12T09:58:28.628Z,1019.44
2018-12-12T09:59:28.475Z,1019.45
2018-12-12T10:00:28.426Z,1019.40
2018-12-12T10:01:30.435Z,1019.42
2018-12-12T10:02:28.975Z,1019.48
2018-12-12T10:03:32.773Z,1019.47
2018-12-12T10:04:28.500Z,1019.48
2018-12-12T10:05:28.919Z,1019.51
2018-12-12T10:06:27.714Z,1019.49
2018-12-12T10:07:29.562Z,1019.55
2018-12-12T10:08:30.436Z,1019.50
2018-12-12T10:09:28.520Z,1019.44
2018-12-12T10:10:28.856Z,1019.46
2018-12-12T10:11:27.710Z,1019.43
2018-12-12T10:12:27.668Z,1019.56
2018-12-12T10:13:27.644Z,1019.55
2018-12-12T10:14:27.655Z,1019.53
2018-12-12T10:15:27.590Z,1019.54
2018-12-12T10:16:27.686Z,1019.53
2018-12-12T10:17:27.573Z,1019.54
2018-12-12T10:18:27.560Z,1019.54
2018-12-12T10:19:27.585Z,1019.50
2018-12-12T10:20:27.528Z,1019.54
2018-12-12T10:21:27.531Z,1019.56
2018-12-12T10:22:27.552Z,1019.58
2018-12-12T10:23:27.516Z,1019.54
2018-12-12T10:24:27.529Z,1019.47
2018-12-12T10:25:27.535Z,1019.45
2018-12-12T10:26:27.471Z,1019.48
2018-12-12T10:27:27.488Z,1019.38
2018-12-12T10:28:27.470Z,1019.39
2018-12-12T10:29:27.454Z,1019.37
2018-12-12T10:30:27.491Z,1019.33
2018-12-12T10:31:27.421Z,1019.36
2018-12-12T10:32:27.417Z,1019.37
2018-12-12T10:33:27.415Z,1019.39
2018-12-12T10:34:27.397Z,1019.36
2018-12-12T10:35:27.403Z,1019.38
2018-12-12T10:36:27.427Z,1019.38
2018-12-12T10:37:27.375Z,1019.42
2018-12-12T10:38:27.359Z,1019.42
2018-12-12T10:39:27.339Z,1019.43
2018-12-12T10:40:27.332Z,1019.40
2018-12-12T10:41:27.336Z,1019.39
2018-12-12T10:42:27.355Z,1019.36
2018-12-12T10:43:27.417Z,1019.35
2018-12-12T10:44:27.297Z,1019.41
2018-12-12T10:45:27.300Z,1019.47
2018-12-12T10:46:27.311Z,1019.52
2018-12-12T10:47:27.324Z,1019.50
2018-12-12T10:48:27.263Z,1019.49
2018-12-12T10:49:27.285Z,1019.48
2018-12-12T10:50:36.463Z,1019.48
2018-12-12T10:51:34.784Z,1019.52
2018-12-12T10:52:36.512Z,1019.51
2018-12-12T10:54:44.607Z,1019.54
2018-12-12T10:57:02.097Z,1019.51
2018-12-12T10:58:02.063Z,1019.53
2018-12-12T10:59:02.075Z,1019.53
2018-12-12T11:00:02.068Z,1019.50
2018-12-12T11:01:02.055Z,1019.47
2018-12-12T11:02:02.023Z,1019.47
2018-12-12T11:03:02.039Z,1019.49
2018-12-12T11:04:02.012Z,1019.48
2018-12-12T11:05:02.019Z,1019.53
2018-12-12T11:06:01.977Z,1019.49
2018-12-12T11:07:01.988Z,1019.49
2018-12-12T11:08:02.002Z,1019.50
2018-12-12T11:09:01.981Z,1019.51
2018-12-12T11:10:01.950Z,1019.52
2018-12-12T11:11:01.944Z,1019.49
2018-12-12T11:12:01.933Z,1019.51
2018-12-12T11:13:01.940Z,1019.53
2018-12-12T11:14:01.954Z,1019.48
2018-12-12T11:15:01.912Z,1019.49
2018-12-12T11:16:01.923Z,1019.54
2018-12-12T11:17:01.887Z,1019.51
2018-12-12T11:18:01.870Z,1019.50
2018-12-12T11:19:02.052Z,1019.51
2018-12-12T11:20:01.882Z,1019.52
2018-12-12T11:21:01.831Z,1019.51
2018-12-12T11:22:01.840Z,1019.54
2018-12-12T11:23:01.827Z,1019.54
2018-12-12T11:24:01.825Z,1019.55
2018-12-12T11:25:01.813Z,1019.52
2018-12-12T11:26:01.866Z,1019.52
2018-12-12T11:27:01.768Z,1019.52
2018-12-12T11:28:01.805Z,1019.46
2018-12-12T11:29:01.779Z,1019.51
2018-12-12T11:30:01.741Z,1019.51
2018-12-12T11:31:01.749Z,1019.50
2018-12-12T11:32:01.744Z,1019.52
2018-12-12T11:33:01.695Z,1019.51
2018-12-12T11:34:01.692Z,1019.52
2018-12-12T11:35:01.802Z,1019.51
2018-12-12T11:36:01.721Z,1019.52
2018-12-12T11:37:01.688Z,1019.53
2018-12-12T11:38:01.678Z,1019.55
2018-12-12T11:39:01.625Z,1019.47
2018-12-12T11:40:01.632Z,1019.53
2018-12-12T11:41:01.660Z,1019.49
2018-12-12T11:42:01.646Z,1019.54
2018-12-12T11:43:01.608Z,1019.49
2018-12-12T11:44:01.595Z,1019.43
2018-12-12T11:45:01.611Z,1019.42
2018-12-12T11:46:01.723Z,1019.48
2018-12-12T11:47:01.566Z,1019.50
2018-12-12T11:48:01.544Z,1019.51
2018-12-12T11:49:01.535Z,1019.51
2018-12-12T11:50:01.528Z,1019.52
2018-12-12T11:51:02.399Z,1019.58
2018-12-12T11:52:01.575Z,1019.53
2018-12-12T11:53:01.501Z,1019.52
2018-12-12T11:54:01.491Z,1019.55
2018-12-12T11:55:01.482Z,1019.59
2018-12-12T11:56:01.463Z,1019.60
2018-12-12T11:57:01.444Z,1019.58
2018-12-12T11:58:01.505Z,1019.55
2018-12-12T11:59:01.434Z,1019.54
2018-12-12T12:00:01.432Z,1019.56
2018-12-12T12:01:01.427Z,1019.56
2018-12-12T12:02:01.400Z,1019.59
2018-12-12T12:03:01.393Z,1019.55
2018-12-12T12:04:01.434Z,1019.60
2018-12-12T12:05:01.352Z,1019.58
2018-12-12T12:06:01.382Z,1019.60
2018-12-12T12:07:01.363Z,1019.59
2018-12-12T12:08:01.373Z,1019.57
2018-12-12T12:09:01.315Z,1019.56
2018-12-12T12:10:01.344Z,1019.58
2018-12-12T12:11:01.340Z,1019.63
2018-12-12T12:12:01.301Z,1019.61
2018-12-12T12:13:01.287Z,1019.63